createdAt,value
2023-04-14T00:00:41.771Z,11.99
2023-04-14T00:03:12.313Z,11.97
2023-04-14T00:05:42.780Z,11.97
2023-04-14T00:08:12.941Z,12.01
2023-04-14T00:10:43.156Z,11.95
2023-04-14T00:13:13.310Z,11.97
2023-04-14T00:15:43.478Z,11.93
2023-04-14T00:18:13.612Z,11.92
2023-04-14T00:20:43.916Z,11.87
2023-04-14T00:23:14.120Z,11.89
2023-04-14T00:25:44.383Z,11.87
2023-04-14T00:28:14.868Z,11.86
2023-04-14T00:30:45.103Z,11.84
2023-04-14T00:33:15.252Z,11.85
2023-04-14T00:35:45.468Z,11.77
2023-04-14T00:38:15.601Z,11.84
2023-04-14T00:40:45.809Z,11.86
2023-04-14T00:43:19.862Z,11.80
2023-04-14T00:45:51.283Z,11.86
2023-04-14T00:48:21.653Z,11.84
2023-04-14T00:50:51.901Z,11.83
2023-04-14T00:53:22.304Z,11.79
2023-04-14T00:55:52.498Z,11.81
2023-04-14T00:58:22.673Z,11.83
2023-04-14T01:00:55.717Z,11.78
2023-04-14T01:03:26.599Z,11.74
2023-04-14T01:05:57.065Z,11.83
2023-04-14T01:08:27.661Z,11.83
2023-04-14T01:11:03.841Z,11.83
2023-04-14T01:13:53.548Z,11.83
2023-04-14T01:16:30.754Z,11.81
2023-04-14T01:19:38.364Z,11.83
2023-04-14T01:22:10.779Z,11.80
2023-04-14T01:24:43.961Z,11.78
2023-04-14T01:27:51.417Z,11.76
2023-04-14T01:30:30.469Z,11.73
2023-04-14T01:33:06.008Z,11.71
2023-04-14T01:35:49.625Z,11.51
2023-04-14T01:38:26.070Z,11.67
2023-04-14T01:41:04.747Z,11.66
2023-04-14T01:43:39.885Z,11.55
2023-04-14T01:46:14.620Z,11.48
2023-04-14T01:48:49.868Z,11.54
2023-04-14T01:51:22.192Z,11.48
2023-04-14T01:53:55.532Z,11.49
2023-04-14T01:56:26.949Z,11.46
2023-04-14T01:58:58.023Z,11.35
2023-04-14T02:01:30.228Z,11.31
2023-04-14T02:04:02.634Z,11.32
2023-04-14T02:06:34.815Z,11.26
2023-04-14T02:09:10.550Z,11.19
2023-04-14T02:11:42.555Z,11.14
2023-04-14T02:14:14.053Z,11.08
2023-04-14T02:16:45.827Z,10.93
2023-04-14T02:19:19.925Z,10.96
2023-04-14T02:21:52.585Z,10.91
2023-04-14T02:24:23.974Z,10.77
2023-04-14T02:27:11.919Z,10.81
2023-04-14T02:29:45.394Z,10.71
2023-04-14T02:32:23.517Z,10.71
2023-04-14T02:35:19.730Z,10.68
2023-04-14T02:37:56.322Z,10.63
2023-04-14T02:40:32.587Z,10.55
2023-04-14T02:43:28.962Z,10.47
2023-04-14T02:46:03.173Z,10.50
2023-04-14T02:48:35.010Z,10.40
2023-04-14T02:51:08.490Z,10.45
2023-04-14T02:53:38.860Z,10.43
2023-04-14T02:56:09.584Z,10.43
2023-04-14T02:58:40.633Z,10.43
2023-04-14T03:01:11.611Z,10.40
2023-04-14T03:03:42.040Z,10.33
2023-04-14T03:06:16.047Z,10.32
2023-04-14T03:08:48.509Z,10.26
2023-04-14T03:11:19.676Z,10.25
2023-04-14T03:13:53.262Z,10.26
2023-04-14T03:16:25.795Z,10.24
2023-04-14T03:18:56.753Z,10.11
2023-04-14T03:21:28.521Z,10.17
2023-04-14T03:24:00.019Z,10.12
2023-04-14T03:26:33.541Z,10.16
2023-04-14T03:29:07.207Z,10.09
2023-04-14T03:31:39.582Z,10.08
2023-04-14T03:34:11.143Z,10.07
2023-04-14T03:36:43.415Z,10.04
2023-04-14T03:39:16.038Z,9.97
2023-04-14T03:41:49.548Z,9.96
2023-04-14T03:44:20.841Z,9.94
2023-04-14T03:46:51.101Z,9.92
2023-04-14T03:49:24.394Z,9.91
2023-04-14T03:52:00.707Z,9.86
2023-04-14T03:54:33.579Z,9.83
2023-04-14T03:57:06.430Z,9.83
2023-04-14T03:59:38.550Z,9.85
2023-04-14T04:02:11.164Z,9.81
2023-04-14T04:04:42.507Z,9.81
2023-04-14T04:07:14.039Z,9.88
2023-04-14T04:09:47.441Z,9.87
2023-04-14T04:12:20.864Z,9.86
2023-04-14T04:14:51.359Z,9.83
2023-04-14T04:17:24.083Z,9.85
2023-04-14T04:19:56.836Z,9.75
2023-04-14T04:22:27.986Z,9.82
2023-04-14T04:24:58.957Z,9.80
2023-04-14T04:27:30.044Z,9.81
2023-04-14T04:30:00.658Z,9.75
2023-04-14T04:32:31.539Z,9.76
2023-04-14T04:35:03.609Z,9.77
2023-04-14T04:37:35.098Z,9.76
2023-04-14T04:40:07.511Z,9.70
2023-04-14T04:42:42.335Z,9.65
2023-04-14T04:45:12.732Z,9.63
2023-04-14T04:47:43.033Z,9.72
2023-04-14T04:50:13.919Z,9.70
2023-04-14T04:52:43.989Z,9.77
2023-04-14T04:55:14.728Z,9.71
2023-04-14T04:57:44.866Z,9.79
2023-04-14T05:00:15.417Z,9.71
2023-04-14T05:02:46.062Z,9.82
2023-04-14T05:05:16.396Z,9.85
2023-04-14T05:07:46.476Z,9.84
2023-04-14T05:10:16.721Z,9.82
2023-04-14T05:12:46.819Z,9.91
2023-04-14T05:15:16.990Z,9.83
2023-04-14T05:17:47.369Z,9.99
2023-04-14T05:20:17.659Z,9.90
2023-04-14T05:22:47.815Z,10.05
2023-04-14T05:25:18.131Z,9.97
2023-04-14T05:27:48.306Z,10.06
2023-04-14T05:30:18.505Z,10.08
2023-04-14T05:32:48.730Z,10.11
2023-04-14T05:35:18.881Z,10.12
2023-04-14T05:37:48.968Z,10.12
2023-04-14T05:40:20.709Z,10.20
2023-04-14T05:42:50.852Z,10.16
2023-04-14T05:45:21.327Z,10.20
2023-04-14T05:47:51.605Z,10.21
2023-04-14T05:50:24.545Z,10.19
2023-04-14T05:52:55.239Z,10.21
2023-04-14T05:55:25.890Z,10.18
2023-04-14T05:57:56.487Z,10.19
2023-04-14T06:00:26.732Z,10.29
2023-04-14T06:02:57.068Z,10.28
2023-04-14T06:05:27.449Z,10.34
2023-04-14T06:07:57.725Z,10.34
2023-04-14T06:10:27.832Z,10.38
2023-04-14T06:12:58.544Z,10.40
2023-04-14T06:15:29.963Z,10.36
2023-04-14T06:18:00.336Z,10.53
2023-04-14T06:20:32.574Z,10.62
2023-04-14T06:23:03.225Z,10.74
2023-04-14T06:25:34.770Z,10.79
2023-04-14T06:28:05.076Z,10.84
2023-04-14T06:30:35.203Z,10.82
2023-04-14T06:33:05.546Z,10.84
2023-04-14T06:35:36.731Z,10.92
2023-04-14T06:38:07.078Z,10.92
2023-04-14T06:40:37.198Z,11.04
2023-04-14T06:43:11.120Z,11.00
2023-04-14T06:45:41.500Z,11.14
2023-04-14T06:48:13.505Z,11.10
2023-04-14T06:50:44.544Z,11.17
2023-04-14T06:53:14.914Z,11.24
2023-04-14T06:55:45.054Z,11.25
2023-04-14T06:58:15.197Z,11.37
2023-04-14T07:00:45.434Z,11.43
2023-04-14T07:03:16.050Z,11.50
2023-04-14T07:05:46.222Z,11.54
2023-04-14T07:28:31.095Z,12.47
2023-04-14T07:31:10.881Z,12.40
2023-04-14T07:33:41.072Z,12.69
2023-04-14T07:36:11.166Z,12.73
2023-04-14T07:38:41.709Z,12.68
2023-04-14T07:41:11.999Z,12.65
2023-04-14T07:43:42.245Z,12.81
2023-04-14T07:46:12.641Z,12.77
2023-04-14T07:48:42.873Z,12.85
2023-04-14T07:51:13.056Z,12.96
2023-04-14T07:53:45.201Z,12.98
2023-04-14T07:56:15.749Z,13.00
2023-04-14T07:58:45.844Z,13.01
2023-04-14T08:01:16.999Z,13.08
2023-04-14T08:03:47.262Z,13.13
2023-04-14T08:06:19.383Z,13.11
2023-04-14T08:08:49.511Z,13.21
2023-04-14T08:11:19.622Z,13.21
2023-04-14T08:13:53.201Z,13.15
2023-04-14T08:16:23.825Z,13.21
2023-04-14T08:18:55.697Z,13.20
2023-04-14T08:21:27.991Z,13.18
2023-04-14T08:23:58.463Z,13.31
2023-04-14T08:26:28.682Z,13.37
2023-04-14T08:28:58.991Z,13.45
2023-04-14T08:31:29.305Z,13.47
2023-04-14T08:33:59.463Z,13.45
2023-04-14T08:36:29.728Z,13.47
2023-04-14T08:39:04.288Z,13.48
2023-04-14T08:41:35.360Z,13.52
2023-04-14T08:44:06.124Z,13.46
2023-04-14T08:46:36.578Z,13.46
2023-04-14T08:49:09.521Z,13.51
2023-04-14T08:51:43.571Z,13.64
2023-04-14T08:54:18.630Z,13.68
2023-04-14T08:56:49.712Z,13.80
2023-04-14T08:59:20.196Z,13.82
2023-04-14T09:01:52.960Z,13.74
2023-04-14T09:04:24.097Z,13.75
2023-04-14T09:06:54.915Z,13.77
2023-04-14T09:09:25.413Z,13.73
2023-04-14T09:11:56.461Z,13.89
2023-04-14T09:14:28.049Z,13.92
2023-04-14T09:16:58.577Z,13.79
2023-04-14T09:19:29.233Z,13.74
2023-04-14T09:22:00.148Z,13.86
2023-04-14T09:24:34.427Z,13.83
2023-04-14T09:27:05.573Z,13.84
2023-04-14T09:29:37.581Z,13.92
2023-04-14T09:32:09.061Z,13.92
2023-04-14T09:34:50.714Z,13.87
2023-04-14T09:37:21.495Z,13.76
2023-04-14T09:39:53.082Z,13.79
2023-04-14T09:42:39.572Z,13.91
2023-04-14T09:45:10.688Z,13.90
2023-04-14T09:47:41.053Z,13.85
2023-04-14T09:50:11.840Z,13.88
2023-04-14T09:52:47.025Z,13.74
2023-04-14T09:55:17.530Z,14.09
2023-04-14T09:57:52.119Z,14.15
2023-04-14T10:00:25.023Z,14.26
2023-04-14T10:02:58.444Z,14.40
2023-04-14T10:05:36.567Z,14.59
2023-04-14T10:08:06.957Z,14.66
2023-04-14T10:10:39.647Z,14.68
2023-04-14T10:13:16.315Z,14.57
2023-04-14T10:15:46.766Z,14.71
2023-04-14T10:18:18.731Z,14.84
2023-04-14T10:20:49.630Z,14.89
2023-04-14T10:23:25.751Z,14.81
2023-04-14T10:25:56.468Z,14.73
2023-04-14T10:28:29.406Z,14.62
2023-04-14T10:31:01.598Z,14.62
2023-04-14T10:33:40.529Z,14.45
2023-04-14T10:36:25.307Z,14.27
2023-04-14T10:39:01.103Z,14.26
2023-04-14T10:41:48.446Z,14.29
2023-04-14T10:44:32.374Z,14.36
2023-04-14T10:47:08.706Z,14.37
2023-04-14T10:49:41.626Z,14.33
2023-04-14T10:52:15.724Z,14.42
2023-04-14T10:54:50.522Z,14.50
2023-04-14T10:57:25.305Z,14.58
2023-04-14T11:00:00.149Z,14.52
2023-04-14T11:02:34.571Z,14.74
2023-04-14T11:05:09.368Z,14.95
2023-04-14T11:07:47.486Z,15.26
2023-04-14T11:10:18.096Z,15.51
2023-04-14T11:12:54.381Z,15.71
2023-04-14T11:15:24.941Z,15.82
2023-04-14T11:17:56.581Z,15.96
2023-04-14T11:20:26.853Z,16.22
2023-04-14T11:23:00.195Z,16.25
2023-04-14T11:25:30.580Z,16.29
2023-04-14T11:28:03.973Z,16.09
2023-04-14T11:30:34.100Z,15.95
2023-04-14T11:33:04.356Z,15.93
2023-04-14T11:35:34.565Z,15.65
2023-04-14T11:38:04.786Z,15.41
2023-04-14T11:40:36.883Z,15.58
2023-04-14T11:43:07.050Z,15.90
2023-04-14T11:45:42.884Z,16.41
2023-04-14T11:48:15.796Z,16.51
2023-04-14T11:50:48.033Z,16.53
2023-04-14T11:53:19.467Z,16.30
2023-04-14T11:55:52.408Z,16.31
2023-04-14T11:58:24.699Z,16.51
2023-04-14T12:01:02.677Z,16.64
2023-04-14T12:03:37.246Z,16.71
2023-04-14T12:06:08.153Z,16.61
2023-04-14T12:08:39.118Z,16.64
2023-04-14T12:11:16.597Z,16.85
2023-04-14T12:13:47.776Z,17.07
2023-04-14T12:16:18.998Z,17.11
2023-04-14T12:18:49.193Z,17.20
2023-04-14T12:21:20.130Z,17.30
2023-04-14T12:23:50.317Z,17.25
2023-04-14T12:26:20.647Z,17.18
2023-04-14T12:28:56.204Z,16.80
2023-04-14T12:31:32.181Z,16.60
2023-04-14T12:34:04.011Z,16.43
2023-04-14T12:36:48.105Z,16.48
2023-04-14T12:39:23.927Z,16.53
2023-04-14T12:42:02.114Z,16.62
2023-04-14T12:44:32.163Z,16.75
2023-04-14T12:47:02.545Z,17.00
2023-04-14T12:49:37.903Z,17.87
2023-04-14T12:52:08.995Z,19.48
2023-04-14T12:54:52.422Z,20.93
2023-04-14T12:57:22.744Z,21.94
2023-04-14T12:59:55.036Z,21.42
2023-04-14T13:02:29.476Z,20.60
2023-04-14T13:05:01.423Z,19.81
2023-04-14T13:07:34.937Z,19.21
2023-04-14T13:10:06.007Z,18.79
2023-04-14T13:12:37.401Z,18.37
2023-04-14T13:15:08.221Z,18.05
2023-04-14T13:17:38.654Z,17.85
2023-04-14T13:20:09.669Z,17.62
2023-04-14T13:22:39.815Z,17.41
2023-04-14T13:25:10.018Z,17.24
2023-04-14T13:27:40.156Z,16.97
2023-04-14T13:30:11.058Z,16.93
2023-04-14T13:32:41.973Z,16.98
2023-04-14T13:35:12.437Z,16.95
2023-04-14T13:37:42.841Z,16.94
2023-04-14T13:40:13.085Z,16.80
2023-04-14T13:42:43.258Z,16.74
2023-04-14T13:45:14.126Z,16.54
2023-04-14T13:47:52.310Z,16.62
2023-04-14T13:50:22.709Z,16.62
2023-04-14T13:52:53.175Z,16.65
2023-04-14T13:55:23.369Z,16.67
2023-04-14T13:57:54.733Z,16.71
2023-04-14T14:00:25.437Z,16.82
2023-04-14T14:02:58.154Z,16.86
2023-04-14T14:05:29.005Z,16.78
2023-04-14T14:07:59.151Z,16.87
2023-04-14T14:10:29.544Z,17.02
2023-04-14T14:12:59.685Z,17.20
2023-04-14T14:15:29.880Z,17.37
2023-04-14T14:18:00.519Z,17.28
2023-04-14T14:20:31.229Z,17.16
2023-04-14T14:23:01.330Z,17.02
2023-04-14T14:25:31.484Z,16.94
2023-04-14T14:28:01.941Z,16.82
2023-04-14T14:30:32.003Z,16.79
2023-04-14T14:33:02.233Z,16.67
2023-04-14T14:35:32.431Z,16.64
2023-04-14T14:38:02.584Z,16.57
2023-04-14T14:40:32.755Z,16.61
2023-04-14T14:43:02.843Z,16.61
2023-04-14T14:45:33.408Z,16.80
2023-04-14T14:48:04.734Z,16.85
2023-04-14T14:50:34.862Z,16.83
2023-04-14T14:53:04.915Z,16.76
2023-04-14T14:55:35.108Z,16.62
2023-04-14T14:58:08.459Z,16.58
2023-04-14T15:00:39.311Z,16.61
2023-04-14T15:03:10.108Z,16.59
2023-04-14T15:05:41.007Z,16.58
2023-04-14T15:08:11.071Z,16.69
2023-04-14T15:10:41.420Z,16.74
2023-04-14T15:13:12.628Z,16.66
2023-04-14T15:15:42.885Z,16.67
2023-04-14T15:18:13.195Z,16.72
2023-04-14T15:20:43.316Z,16.74
2023-04-14T15:23:13.408Z,16.88
2023-04-14T15:25:43.581Z,16.88
2023-04-14T15:28:14.580Z,16.65
2023-04-14T15:30:44.722Z,16.67
2023-04-14T15:33:14.895Z,16.70
2023-04-14T15:35:45.011Z,16.60
2023-04-14T15:38:15.233Z,16.50
2023-04-14T15:40:45.394Z,16.55
2023-04-14T15:43:16.430Z,16.72
2023-04-14T15:45:46.549Z,17.57
2023-04-14T15:48:16.670Z,18.61
2023-04-14T15:50:46.850Z,18.78
2023-04-14T15:53:17.589Z,18.47
2023-04-14T15:55:49.777Z,18.21
2023-04-14T15:58:19.880Z,18.14
2023-04-14T16:00:50.535Z,18.00
2023-04-14T16:03:20.852Z,17.89
2023-04-14T16:05:51.098Z,17.82
2023-04-14T16:08:21.156Z,17.56
2023-04-14T16:10:51.255Z,17.42
2023-04-14T16:13:21.730Z,17.13
2023-04-14T16:15:51.984Z,16.78
2023-04-14T16:18:22.114Z,16.49
2023-04-14T16:20:53.612Z,16.36
2023-04-14T16:23:23.856Z,16.11
2023-04-14T16:25:54.055Z,16.11
2023-04-14T16:28:25.082Z,15.94
2023-04-14T16:30:55.537Z,15.91
2023-04-14T16:33:26.259Z,15.85
2023-04-14T16:35:57.356Z,15.74
2023-04-14T16:38:28.330Z,15.63
2023-04-14T16:40:59.450Z,15.69
2023-04-14T16:43:29.682Z,15.59
2023-04-14T16:46:04.012Z,15.44
2023-04-14T16:48:36.017Z,15.34
2023-04-14T16:51:11.286Z,15.27
2023-04-14T16:53:41.450Z,15.18
2023-04-14T16:56:11.860Z,15.11
2023-04-14T16:58:42.581Z,14.98
2023-04-14T17:01:12.753Z,14.92
2023-04-14T17:03:43.005Z,14.82
2023-04-14T17:06:13.337Z,14.75
2023-04-14T17:08:43.451Z,14.64
2023-04-14T17:11:15.160Z,14.61
2023-04-14T17:13:45.281Z,14.46
2023-04-14T17:16:15.830Z,14.42
2023-04-14T17:18:45.880Z,14.33
2023-04-14T17:21:15.979Z,14.25
2023-04-14T17:23:46.827Z,14.22
2023-04-14T17:26:17.131Z,14.08
2023-04-14T17:28:47.464Z,14.02
2023-04-14T17:31:17.882Z,13.99
2023-04-14T17:33:48.017Z,13.77
2023-04-14T17:36:18.376Z,13.80
2023-04-14T17:38:49.705Z,13.72
2023-04-14T17:41:21.023Z,13.60
2023-04-14T17:43:51.754Z,13.52
2023-04-14T17:46:27.931Z,13.51
2023-04-14T17:48:58.341Z,13.40
2023-04-14T17:51:30.225Z,13.51
2023-04-14T17:54:00.931Z,13.32
2023-04-14T17:56:32.012Z,13.47
2023-04-14T17:59:02.139Z,13.41
2023-04-14T18:01:32.364Z,13.36
2023-04-14T18:04:04.606Z,13.26
2023-04-14T18:06:35.379Z,13.24
2023-04-14T18:09:05.503Z,13.24
2023-04-14T18:11:36.825Z,13.17
2023-04-14T18:14:06.915Z,13.18
2023-04-14T18:16:37.737Z,13.16
2023-04-14T18:19:08.329Z,12.99
2023-04-14T18:21:38.603Z,13.03
2023-04-14T18:26:43.546Z,13.04
2023-04-14T18:29:13.692Z,12.99
2023-04-14T18:31:43.812Z,12.79
2023-04-14T18:34:45.128Z,12.92
2023-04-14T18:37:15.933Z,12.87
2023-04-14T18:39:46.099Z,12.82
2023-04-14T18:42:17.049Z,12.74
2023-04-14T18:44:47.142Z,12.72
2023-04-14T18:47:18.317Z,12.59
2023-04-14T18:49:48.478Z,12.59
2023-04-14T18:52:18.708Z,12.58
2023-04-14T18:54:49.529Z,12.53
2023-04-14T18:57:19.700Z,12.54
2023-04-14T18:59:49.763Z,12.42
2023-04-14T19:02:20.883Z,12.44
2023-04-14T19:04:51.060Z,12.32
2023-04-14T19:07:21.214Z,12.36
2023-04-14T19:09:51.888Z,12.12
2023-04-14T19:12:28.415Z,12.29
2023-04-14T19:14:58.983Z,12.27
2023-04-14T19:17:33.013Z,12.18
2023-04-14T19:20:04.629Z,12.20
2023-04-14T19:22:34.767Z,12.18
2023-04-14T19:25:05.782Z,12.07
2023-04-14T19:27:38.581Z,12.11
2023-04-14T19:30:09.062Z,12.06
2023-04-14T19:32:39.627Z,12.06
2023-04-14T19:35:10.905Z,12.02
2023-04-14T19:37:41.062Z,11.98
2023-04-14T19:40:11.546Z,11.74
2023-04-14T19:42:41.837Z,11.77
2023-04-14T19:45:11.979Z,11.83
2023-04-14T19:47:42.476Z,11.87
2023-04-14T19:50:12.674Z,11.69
2023-04-14T19:52:43.994Z,11.87
2023-04-14T19:55:14.494Z,11.85
2023-04-14T19:57:45.805Z,11.92
2023-04-14T20:00:16.991Z,11.83
2023-04-14T20:02:47.294Z,11.89
2023-04-14T20:05:17.972Z,11.89
2023-04-14T20:07:48.170Z,11.85
2023-04-14T20:10:18.462Z,11.86
2023-04-14T20:12:49.473Z,11.82
2023-04-14T20:15:19.600Z,11.83
2023-04-14T20:17:50.775Z,11.83
2023-04-14T20:20:21.565Z,11.81
2023-04-14T20:22:54.316Z,11.74
2023-04-14T20:25:24.545Z,11.77
2023-04-14T20:27:54.694Z,11.77
2023-04-14T20:30:25.910Z,11.76
2023-04-14T20:32:56.733Z,11.71
2023-04-14T20:35:28.164Z,11.70
2023-04-14T20:37:58.549Z,11.59
2023-04-14T20:40:29.299Z,11.71
2023-04-14T20:43:00.153Z,11.65
2023-04-14T20:45:30.670Z,11.70
2023-04-14T20:48:01.528Z,11.68
2023-04-14T20:50:33.641Z,11.66
2023-04-14T20:53:03.889Z,11.65
2023-04-14T20:55:34.478Z,11.62
2023-04-14T20:58:04.724Z,11.52
2023-04-14T21:00:35.418Z,11.60
2023-04-14T21:03:06.655Z,11.56
2023-04-14T21:05:37.054Z,11.47
2023-04-14T21:08:07.839Z,11.42
2023-04-14T21:11:15.767Z,11.52
2023-04-14T21:15:29.750Z,11.33
2023-04-14T21:16:18.874Z,11.34
2023-04-14T21:18:49.211Z,11.41
2023-04-14T21:21:19.525Z,11.27
2023-04-14T21:23:49.734Z,11.39
2023-04-14T21:26:19.945Z,11.40
2023-04-14T21:28:50.280Z,11.28
2023-04-14T21:31:20.749Z,11.32
2023-04-14T21:33:50.906Z,11.36
2023-04-14T21:36:24.641Z,11.13
2023-04-14T21:38:55.078Z,11.24
2023-04-14T21:41:25.432Z,11.27
2023-04-14T21:43:55.653Z,11.27
2023-04-14T21:46:26.152Z,11.19
2023-04-14T21:48:56.750Z,11.22
2023-04-14T21:51:27.654Z,11.03
2023-04-14T21:53:57.751Z,11.06
2023-04-14T21:56:28.064Z,11.10
2023-04-14T21:58:58.462Z,11.05
2023-04-14T22:01:28.812Z,11.09
2023-04-14T22:04:00.596Z,11.15
2023-04-14T22:06:33.289Z,11.12
2023-04-14T22:09:03.989Z,11.14
2023-04-14T22:11:34.338Z,11.05
2023-04-14T22:14:05.918Z,11.11
2023-04-14T22:16:36.271Z,11.05
2023-04-14T22:19:06.629Z,11.01
2023-04-14T22:21:36.737Z,10.91
2023-04-14T22:24:07.366Z,10.97
2023-04-14T22:26:37.498Z,10.96
2023-04-14T22:29:08.848Z,10.96
2023-04-14T22:31:40.594Z,10.93
2023-04-14T22:34:10.912Z,11.01
2023-04-14T22:36:41.082Z,10.99
2023-04-14T22:39:11.332Z,11.04
2023-04-14T22:41:42.551Z,11.00
2023-04-14T22:44:13.153Z,11.00
2023-04-14T22:46:43.468Z,11.06
2023-04-14T22:49:13.639Z,11.03
2023-04-14T22:51:43.721Z,11.09
2023-04-14T22:54:13.909Z,11.04
2023-04-14T22:56:44.067Z,11.12
2023-04-14T22:59:14.344Z,11.12
2023-04-14T23:01:44.450Z,11.11
2023-04-14T23:04:15.015Z,11.13
2023-04-14T23:06:45.676Z,11.04
2023-04-14T23:09:16.260Z,11.13
2023-04-14T23:11:46.310Z,11.07
2023-04-14T23:14:16.522Z,10.93
2023-04-14T23:16:46.624Z,11.04
2023-04-14T23:19:16.875Z,11.02
2023-04-14T23:21:48.390Z,11.02
2023-04-14T23:24:18.794Z,10.98
2023-04-14T23:26:48.848Z,11.09
2023-04-14T23:29:19.121Z,10.95
2023-04-14T23:31:49.386Z,11.02
2023-04-14T23:34:19.603Z,11.06
2023-04-14T23:36:49.680Z,11.11
2023-04-14T23:39:19.847Z,11.12
2023-04-14T23:41:49.966Z,11.11
2023-04-14T23:44:20.535Z,11.09
2023-04-14T23:46:51.917Z,11.13
2023-04-14T23:49:23.684Z,11.08
2023-04-14T23:51:54.888Z,11.07
2023-04-14T23:54:25.081Z,11.14
2023-04-14T23:56:55.409Z,11.04
2023-04-14T23:59:25.629Z,11.12
